Humidity-temperature Sensor

Selected Measurement Type: Relative Humidity

 
Relative Humidity [%]     6 entries per hour
Showing data from 5/24/2023 (00:00:00 Z) to 5/17/2023 (00:01:00 Z)
Previous Next [ Day | 3-Days | 7-Days ]
First Last
Prev [ Day | 3-Days | 7-Days ] Next
First Last

Start Time:     :
End Time:     :     
Time (in GMT) :00 :50 :40 :30 :20 :10
Previous Next [ Day | 3-Days | 7-Days ]
First Last
Prev [ Day | 3-Days | 7-Days ] Next
First Last


123 => good data
MM => data is determined as missing
-- => data not received/configured
Back to Top Back to Top
5/24/2023 00:00 to 23:10 81.06 78.16 81.60 81.35 81.27 80.03
5/23/2023 23:00 to 22:10 79.58 80.41 84.50 84.48 81.79 82.73
5/23/2023 22:00 to 21:10 82.10 82.08 80.74 80.64 80.77 79.97
5/23/2023 21:00 to 20:10 81.12 83.37 86.76 83.90 80.89 80.54
5/23/2023 20:00 to 19:10 80.47 81.29 80.49 82.35 81.29 80.16
5/23/2023 19:00 to 18:10 80.87 79.68 78.28 78.13 78.07 79.80
5/23/2023 18:00 to 17:10 79.24 78.97 79.76 79.24 77.91 78.32
5/23/2023 17:00 to 16:10 79.26 78.59 79.01 79.30 78.82 79.22
5/23/2023 16:00 to 15:10 78.66 78.62 80.26 78.91 79.72 78.51
5/23/2023 15:00 to 14:10 79.32 81.85 78.26 78.49 78.74 77.17
5/23/2023 14:00 to 13:10 79.80 80.64 80.35 78.26 82.33 81.96
5/23/2023 13:00 to 12:10 82.35 80.64 83.90 82.66 80.12 80.22
5/23/2023 12:00 to 11:10 80.74 80.93 79.45 81.10 82.79 80.08
5/23/2023 11:00 to 10:10 79.95 78.76 80.39 81.89 81.58 81.16
5/23/2023 10:00 to 9:10 83.15 81.14 79.87 84.77 86.03 86.44
5/23/2023 09:00 to 8:10 85.98 83.04 82.25 81.87 83.37 80.62
5/23/2023 08:00 to 7:10 82.21 78.66 78.95 78.43 78.76 78.74
5/23/2023 07:00 to 6:10 80.49 77.24 79.53 78.64 79.93 81.29
5/23/2023 06:00 to 5:10 80.24 80.22 80.85 79.26 77.74 79.20
5/23/2023 05:00 to 4:10 79.47 79.70 79.20 79.16 79.85 76.88
5/23/2023 04:00 to 3:10 77.91 75.05 76.46 76.97 76.36 74.02
5/23/2023 03:00 to 2:10 75.82 75.73 75.48 74.17 75.02 76.21
5/23/2023 02:00 to 1:10 74.57 76.42 75.63 76.13 76.09 74.69
5/23/2023 01:00 to 0:10 77.95 76.36 75.46 76.11 76.42 74.92
5/23/2023 00:00 to 23:10 74.25 75.69 76.94 77.36 80.97 80.14
5/22/2023 23:00 to 22:10 81.85 79.53 78.76 80.64 80.56 79.53
5/22/2023 22:00 to 21:10 78.97 80.72 80.74 80.06 79.03 79.07
5/22/2023 21:00 to 20:10 80.24 78.62 78.20 82.06 79.68 79.53
5/22/2023 20:00 to 19:10 79.85 78.91 76.38 76.42 75.67 79.39
5/22/2023 19:00 to 18:10 78.11 76.88 75.71 75.71 77.32 77.17
5/22/2023 18:00 to 17:10 76.49 78.47 77.09 78.03 80.99 78.41
5/22/2023 17:00 to 16:10 79.41 79.18 77.70 77.26 75.90 76.21
5/22/2023 16:00 to 15:10 79.78 79.01 80.08 77.99 78.76 79.60
5/22/2023 15:00 to 14:10 77.40 80.89 81.64 82.33 82.00 81.81
5/22/2023 14:00 to 13:10 82.92 81.12 82.46 80.60 82.12 80.22
5/22/2023 13:00 to 12:10 80.56 81.39 80.66 81.60 82.12 81.64
5/22/2023 12:00 to 11:10 80.77 81.33 82.79 83.29 81.60 82.02
5/22/2023 11:00 to 10:10 83.23 82.25 83.69 83.40 83.48 83.17
5/22/2023 10:00 to 9:10 82.71 82.66 82.25 82.73 82.02 80.49
5/22/2023 09:00 to 8:10 82.98 83.79 81.52 82.27 82.62 83.63
5/22/2023 08:00 to 7:10 82.21 82.71 83.25 82.69 84.40 82.94
5/22/2023 07:00 to 6:10 81.79 80.51 80.49 80.66 83.00 79.85
5/22/2023 06:00 to 5:10 81.89 83.06 83.31 82.14 84.25 85.42
5/22/2023 05:00 to 4:10 84.88 84.54 85.13 85.04 86.19 83.15
5/22/2023 04:00 to 3:10 82.87 85.61 83.94 82.00 84.02 84.17
5/22/2023 03:00 to 2:10 82.77 83.46 84.36 83.46 84.25 82.02
5/22/2023 02:00 to 1:10 83.71 83.10 82.41 82.83 81.79 82.08
5/22/2023 01:00 to 0:10 81.79 82.23 81.87 83.60 81.87 84.84
5/22/2023 00:00 to 23:10 85.59 83.52 84.44 82.52 84.00 84.71
5/21/2023 23:00 to 22:10 83.73 83.54 83.81 82.66 84.44 84.06
5/21/2023 22:00 to 21:10 83.56 83.25 83.83 83.81 84.56 83.71
5/21/2023 21:00 to 20:10 83.90 83.60 85.00 84.56 83.12 83.77
5/21/2023 20:00 to 19:10 83.19 85.11 85.02 84.00 84.11 84.40
5/21/2023 19:00 to 18:10 83.06 82.81 83.83 82.37 83.06 83.65
5/21/2023 18:00 to 17:10 83.04 81.18 81.91 82.41 84.96 84.63
5/21/2023 17:00 to 16:10 85.19 85.73 84.92 85.96 85.46 86.36
5/21/2023 16:00 to 15:10 85.44 83.37 81.87 82.31 82.60 84.54
5/21/2023 15:00 to 14:10 85.09 82.69 83.54 82.69 83.02 83.71
5/21/2023 14:00 to 13:10 85.17 84.42 85.34 85.78 85.98 86.28
5/21/2023 13:00 to 12:10 84.27 85.27 85.98 85.92 84.25 84.82
5/21/2023 12:00 to 11:10 85.09 85.40 85.21 85.15 84.17 86.34
5/21/2023 11:00 to 10:10 84.00 84.73 85.36 84.65 86.84 85.69
5/21/2023 10:00 to 9:10 84.73 85.48 87.11 84.82 86.05 86.84
5/21/2023 09:00 to 8:10 86.76 85.71 86.61 84.90 85.88 85.69
5/21/2023 08:00 to 7:10 88.09 88.68 88.07 87.05 87.34 85.40
5/21/2023 07:00 to 6:10 84.11 85.48 85.67 89.18 89.89 89.16
5/21/2023 06:00 to 5:10 88.49 92.14 86.97 88.93 89.89 88.87
5/21/2023 05:00 to 4:10 88.28 86.57 85.73 86.94 83.42 86.28
5/21/2023 04:00 to 3:10 86.26 87.01 87.51 86.92 85.42 86.57
5/21/2023 03:00 to 2:10 84.77 85.38 86.57 89.05 91.56 90.43
5/21/2023 02:00 to 1:10 88.32 89.55 90.03 90.10 89.55 87.86
5/21/2023 01:00 to 0:10 88.57 91.81 91.45 90.10 89.37 88.95
5/21/2023 00:00 to 23:10 91.39 92.66 88.05 87.49 92.25 93.71
5/20/2023 23:00 to 22:10 88.38 87.55 87.97 87.72 88.59 87.97
5/20/2023 22:00 to 21:10 88.66 88.20 88.47 88.53 87.61 88.36
5/20/2023 21:00 to 20:10 88.09 88.28 88.20 88.24 87.47 88.59
5/20/2023 20:00 to 19:10 87.78 88.45 88.22 88.09 88.51 88.22
5/20/2023 19:00 to 18:10 88.93 89.45 88.61 88.91 89.32 88.72
5/20/2023 18:00 to 17:10 89.99 89.49 90.76 92.35 92.21 91.10
5/20/2023 17:00 to 16:10 92.33 91.62 91.24 91.04 92.58 92.91
5/20/2023 16:00 to 15:10 93.58 93.06 93.67 93.48 93.69 93.98
5/20/2023 15:00 to 14:10 94.44 93.79 93.46 93.65 93.77 93.73
5/20/2023 14:00 to 13:10 95.02 92.00 93.14 91.75 92.14 92.02
5/20/2023 13:00 to 12:10 92.39 93.33 93.42 91.52 91.52 90.43
5/20/2023 12:00 to 11:10 91.37 91.41 90.39 91.10 90.14 89.72
5/20/2023 11:00 to 10:10 89.95 90.70 89.95 89.68 90.41 90.66
5/20/2023 10:00 to 9:10 90.35 89.80 90.22 90.56 91.10 90.93
5/20/2023 09:00 to 8:10 90.45 89.37 89.57 89.05 88.87 89.99
5/20/2023 08:00 to 7:10 89.09 89.57 88.41 88.74 89.66 89.47
5/20/2023 07:00 to 6:10 88.24 88.70 89.85 88.68 88.97 89.01
5/20/2023 06:00 to 5:10 89.30 89.16 88.70 88.72 89.49 89.72
5/20/2023 05:00 to 4:10 88.84 88.41 88.07 87.42 88.84 89.66
5/20/2023 04:00 to 3:10 89.74 88.91 88.13 88.45 88.51 88.30
5/20/2023 03:00 to 2:10 88.38 87.72 88.45 88.43 88.74 88.07
5/20/2023 02:00 to 1:10 88.36 87.72 87.88 88.05 87.99 88.76
5/20/2023 01:00 to 0:10 88.41 87.90 86.99 87.45 87.97 87.42
5/20/2023 00:00 to 23:10 87.22 88.28 87.53 87.78 87.47 86.99
5/19/2023 23:00 to 22:10 87.20 86.92 87.59 86.65 87.47 87.11
5/19/2023 22:00 to 21:10 87.20 87.72 87.78 86.36 86.74 86.65
5/19/2023 21:00 to 20:10 85.96 85.82 86.92 86.26 87.20 87.38
5/19/2023 20:00 to 19:10 86.13 86.61 86.13 86.36 85.71 86.94
5/19/2023 19:00 to 18:10 85.78 85.55 85.98 84.98 86.51 86.71
5/19/2023 18:00 to 17:10 85.25 86.86 86.32 85.98 86.15 86.05
5/19/2023 17:00 to 16:10 86.53 86.80 85.42 85.96 86.86 86.97
5/19/2023 16:00 to 15:10 85.92 85.30 86.71 86.40 86.63 87.82
5/19/2023 15:00 to 14:10 87.80 87.07 88.16 88.22 87.88 87.40
5/19/2023 14:00 to 13:10 88.57 87.97 88.11 86.99 86.99 89.16
5/19/2023 13:00 to 12:10 88.28 88.47 88.66 88.51 88.20 87.90
5/19/2023 12:00 to 11:10 88.49 87.65 87.01 89.03 87.49 87.95
5/19/2023 11:00 to 10:10 88.30 88.57 87.93 88.36 87.51 88.07
5/19/2023 10:00 to 9:10 87.70 87.93 87.82 88.93 88.03 88.72
5/19/2023 09:00 to 8:10 87.63 87.86 87.63 88.30 88.26 87.65
5/19/2023 08:00 to 7:10 87.11 88.45 88.43 88.57 88.36 88.36
5/19/2023 07:00 to 6:10 87.61 88.76 88.43 87.90 88.87 88.82
5/19/2023 06:00 to 5:10 88.70 88.51 89.05 87.97 88.20 88.76
5/19/2023 05:00 to 4:10 88.49 87.40 88.18 87.74 87.65 87.78
5/19/2023 04:00 to 3:10 88.41 87.82 88.99 88.05 88.11 87.22
5/19/2023 03:00 to 2:10 88.97 88.74 88.51 88.41 88.68 88.89
5/19/2023 02:00 to 1:10 87.47 87.80 88.26 89.53 89.35 88.43
5/19/2023 01:00 to 0:10 88.43 88.34 87.78 89.55 89.05 88.55
5/19/2023 00:00 to 23:10 88.68 89.09 89.39 88.82 88.99 88.32
5/18/2023 23:00 to 22:10 87.97 87.72 87.53 88.34 88.51 87.32
5/18/2023 22:00 to 21:10 87.13 87.07 86.92 87.26 88.41 88.55
5/18/2023 21:00 to 20:10 87.88 87.57 87.78 87.76 87.70 87.61
5/18/2023 20:00 to 19:10 87.93 85.96 86.82 87.03 87.30 87.13
5/18/2023 19:00 to 18:10 87.63 88.32 88.55 87.49 87.15 87.32
5/18/2023 18:00 to 17:10 88.64 89.07 88.53 87.82 87.32 87.72
5/18/2023 17:00 to 16:10 88.51 89.80 89.09 88.89 90.43 91.06
5/18/2023 16:00 to 15:10 90.01 89.30 88.30 89.39 89.93 89.30
5/18/2023 15:00 to 14:10 89.18 88.01 90.14 90.56 93.58 91.29
5/18/2023 14:00 to 13:10 89.57 89.68 90.05 90.60 89.74 87.95
5/18/2023 13:00 to 12:10 89.05 90.24 89.30 88.99 89.26 89.45
5/18/2023 12:00 to 11:10 89.39 90.08 89.43 89.07 89.51 89.74
5/18/2023 11:00 to 10:10 90.26 89.76 89.93 89.78 89.99 88.57
5/18/2023 10:00 to 9:10 88.97 88.99 91.22 89.43 86.71 90.24
5/18/2023 09:00 to 8:10 91.14 89.28 89.05 88.34 88.59 88.43
5/18/2023 08:00 to 7:10 88.34 88.34 88.32 88.70 88.13 87.86
5/18/2023 07:00 to 6:10 87.15 88.16 88.30 89.83 90.47 90.24
5/18/2023 06:00 to 5:10 88.41 89.57 89.01 89.07 88.34 87.47
5/18/2023 05:00 to 4:10 87.78 85.82 86.80 87.65 87.36 87.38
5/18/2023 04:00 to 3:10 85.38 85.13 85.27 86.34 86.97 85.84
5/18/2023 03:00 to 2:10 87.30 86.51 85.84 85.57 84.90 84.98
5/18/2023 02:00 to 1:10 84.44 84.29 85.00 84.54 84.00 83.69
5/18/2023 01:00 to 0:10 82.10 81.56 80.43 80.54 82.52 82.04
5/18/2023 00:00 to 23:10 82.52 84.27 84.44 86.55 87.40 89.85
5/17/2023 23:00 to 22:10 89.47 89.37 89.78 89.97 87.28 88.49
5/17/2023 22:00 to 21:10 88.95 88.38 88.09 88.07 89.35 88.34
5/17/2023 21:00 to 20:10 88.66 87.99 87.97 88.99 89.60 89.55
5/17/2023 20:00 to 19:10 92.16 89.32 88.84 88.22 88.20 87.65
5/17/2023 19:00 to 18:10 85.90 87.24 86.07 87.32 87.36 86.90
5/17/2023 18:00 to 17:10 87.26 86.97 88.80 88.57 87.47 88.16
5/17/2023 17:00 to 16:10 87.47 88.16 86.55 87.86 87.86 87.22
5/17/2023 16:00 to 15:10 88.93 89.85 91.10 91.81 91.04 88.49
5/17/2023 15:00 to 14:10 90.45 90.28 92.52 91.77 89.87 88.38
5/17/2023 14:00 to 13:10 90.95 89.49 89.99 89.83 89.24 89.76
5/17/2023 13:00 to 12:10 88.82 89.24 88.34 87.53 87.49 86.78
5/17/2023 12:00 to 11:10 88.66 89.14 87.95 87.72 88.91 90.22
5/17/2023 11:00 to 10:10 90.05 89.89 90.68 90.22 89.41 88.89
5/17/2023 10:00 to 9:10 88.34 89.72 89.55 91.43 90.85 90.20
5/17/2023 09:00 to 8:10 90.89 89.91 87.72 90.14 88.38 87.80
5/17/2023 08:00 to 7:10 89.49 89.01 88.80 89.51 89.41 92.41
5/17/2023 07:00 to 6:10 91.10 88.64 88.68 89.18 88.64 91.10
5/17/2023 06:00 to 5:10 89.55 88.95 91.06 92.00 89.03 90.20
5/17/2023 05:00 to 4:10 90.03 90.01 89.30 88.03 89.30 87.80
5/17/2023 04:00 to 3:10 88.78 88.84 90.49 89.95 89.53 89.07
5/17/2023 03:00 to 2:10 91.75 90.45 88.72 88.26 87.78 90.58
5/17/2023 02:00 to 1:10 92.37 92.27 91.02 90.39 90.33 88.76
5/17/2023 01:00 to 0:10 88.05 87.28 86.59 88.18 87.63 89.35